Accueil
METAR-TAF:

METAR-TAF

Aéroports :

Aéroport de Kameshli

Al Qamishli, Syrie

latitude: 37-03N, longitude: 041-13E, altitude: 455 m

Observation

Le bulletin a été fait il y a 1 heure et 7 minutes, à 07:00 UTC
Vent 6 kt de nord/nord-ouest
Température 15°C
Humidité 63%
Pression 1019 hPa
Visibilité 10 km ou plus
Nuages épars à une hauteur de 2600 ft

METAR: OSKL 230700Z 33006KT 9999 SCT026 15/08 Q1019

Heure: 11:07 (08:07 UTC)


TAF: absent

Observations et prévisions météorologiques de plus de 4000 aéroports (messages METAR et TAF).

Les stations disponibles sont représentées par des disques jaunes et rouges sur la carte.

Passer la souris dessus pour voir le nom de la station.

Cliquer dessus pour voir les observations et prévisions météorologiques.

Pour changer de carte: cliquez sur les boutons verts avec une croix noire pour zoomer, sur le bouton vert avec un tiret pour effectuer un zoom arrière, ou sur les flèches vertes pour les cartes adjacentes.


METAR-TAF: